AirNav   Everest Fuels
 
 1715 users online  

1M9 Lake Barkley State Park Airport
Cadiz, Kentucky, USA

GOING TO CADIZ?


FAA INFORMATION EFFECTIVE 10 SEPTEMBER 2020

Location

FAA Identifier: 1M9
Lat/Long: 36-49-04.0850N 087-54-27.0600W
36-49.068083N 087-54.451000W
36.8178014,-87.9075167
(estimated)
Elevation: 570.9 ft. / 174.0 m (surveyed)
Variation: 00E (1985)
From city: 4 miles SW of CADIZ, KY
Time zone: UTC -5 (UTC -6 during Standard Time)
Zip code: 42211

Airport Operations

Airport use: Open to the public
Activation date: 08/1980
Control tower: no
ARTCC: MEMPHIS CENTER
FSS: LOUISVILLE FLIGHT SERVICE STATION
NOTAMs facility: LOU (NOTAM-D service available)
Attendance: UNATNDD
Wind indicator: lighted
Segmented circle: yes
Lights: ACTVT REIL RWY 02 & 20; PAPI RWY 02 & 20; MIRL RWY 02/20 - CTAF.
Beacon: white-green (lighted land airport)
Operates sunset to sunrise.

Airport Communications

CTAF/UNICOM: 123.0

Nearby radio navigation aids

VOR radial/distance  VOR name  Freq  Var
CKVr297/26.5CLARKSVILLE VOR/DME110.6001W

Airport Services

Parking: tiedowns
Airframe service: NONE
Powerplant service: NONE
Bottled oxygen: NONE
Bulk oxygen: NONE

Runway Information

Runway 2/20

Dimensions: 4800 x 100 ft. / 1463 x 30 m
Surface: asphalt, in good condition
Weight bearing capacity: 
Single wheel: 30.0
Runway edge lights: medium intensity
Runway edge markings: MARKINGS FADED AND ALGAE COVERED
RUNWAY 2  RUNWAY 20
Latitude: 36-48.697500N36-49.438667N
Longitude: 087-54.622333W087-54.279667W
Elevation: 549.0 ft.570.9 ft.
Traffic pattern: leftleft
Declared distances: TORA:4800 TODA:4800 ASDA:4700 LDA:4600TORA:4800 TODA:4800 ASDA:4700 LDA:4600
Markings: nonprecision, in poor conditionnonprecision, in poor condition
Visual slope indicator: 2-light PAPI on left (3.00 degrees glide path)2-light PAPI on left (3.00 degrees glide path)
Runway end identifier lights: yesyes
Obstructions: 11 ft. trees, 200 ft. from runway, 35 ft. right of centerline
TREES 150 FT L OF RWY END.
6 ft. trees, 200 ft. from runway, 162 ft. right of centerline
TREES 155 FT R OF RWY END.

Airport Ownership and Management from official FAA records

Ownership: Publicly-owned
Owner: KY DEPT OF PARKS
2 HUDSON HOLLOW UNIT 1
FRANKFORT, KY 40601
Phone (502) 892-3367
Manager: DAVID MILLER
3500 STATE PARK ROAD
CADIZ, KY 42211
Phone 270-924-1131

Airport Operational Statistics

Aircraft operations: avg 40/day *
51% military
37% transient general aviation
10% local general aviation
1% air taxi
* for 12-month period ending 17 October 2019

Additional Remarks

TRANSPORTATION TO PARK LODGE AVAIL 270-924-1131
DEER & BIRDS ON & INVOF ARPT.
FOR CD CTC CAMPBELL APCH AT 270-798-6441.

Instrument Procedures

There are no published instrument procedures at 1M9.

Some nearby airports with instrument procedures:

2M0 - Princeton-Caldwell County Airport (18 nm N)
KHOP - Campbell Army Airfield (Fort Campbell) (22 nm SE)
KHVC - Hopkinsville-Christian County Airport (22 nm E)
KCEY - Kyle-Oakley Field Airport (24 nm W)
KEOD - Sabre Army Airfield (Fort Campbell) (25 nm SE)
 
Loc | Ops | Rwys | IFR | FBO | Links
Com | Nav | Svcs | Stats | Notes
Area around 1M9 (Lake Barkley State Park Airport)
 
Road maps at: MapQuest Bing Google
 
Aerial photo
WARNING: Photo may not be current or correct
Aerial photo of 1M9 (Lake Barkley State Park Airport)
Photo taken 03-Mar-2018
looking northeast.

Do you have a better or more recent aerial photo of Lake Barkley State Park Airport that you would like to share? If so, please send us your photo.

 
Sectional chart

 
Airport distance calculator
Flying to Lake Barkley State Park Airport? Find the distance to fly.

From to 1M9

Sunrise and sunset
Times for 30-Sep-2020
 Local
(UTC-5)
 Zulu
(UTC)
Morning civil twilight06:2211:22
Sunrise06:4811:48
Sunset18:3523:35
Evening civil twilight19:0100:01

Current date and time
Zulu (UTC)  30-Sep-2020 16:00:31
Local (UTC-5)  30-Sep-2020 11:00:31
 
METAR
KHOP 
22nm SE 
301456Z AUTO 23015G23KT 10SM CLR 19/09 A2994 RMK AO2 SLP139 T01900086 51005 $
KCEY 
24nm W 
301535Z AUTO 22011KT 10SM CLR 20/09 A2994 RMK AO1
KEOD 
25nm SE 
301458Z AUTO 24012KT 10SM CLR 19/09 A2996 RMK AO2 SLP147 T01860088 51006
KCKV 
27nm SE 
301552Z AUTO 23009G17KT 10SM CLR 21/10 A2995 RMK AO2 SLP138 T02110100
K5M9 
33nm N 
301535Z AUTO 23014G21KT 10SM CLR 20/08 A2990 RMK AO2 T02000077
KM25 
33nm W 
301555Z AUTO 22010KT 10SM CLR 21/09 A2995 RMK AO2 PWINO
KPHT 
37nm SW 
301535Z AUTO 22015G20KT 10SM CLR 20/10 A2997 RMK A01
K2I0 
40nm NE 
301535Z AUTO 24016G21KT 10SM CLR 23/06 A2989 RMK AO2 T02250063
TAF
KHOP 
22nm SE 
300800Z 3008/0114 23006KT 9999 FEW050 QNH2992INS BECMG 3014/3015 23012G25KT 9999 SCT070 QNH2984INS BECMG 3022/3023 30006KT 9999 SCT060 QNH2988INS TX24/3021Z TN07/3012Z
KCKV 
27nm SE 
301121Z 3012/0112 22007KT P6SM SKC FM301800 23010G20KT P6SM SKC FM010000 26006KT P6SM BKN250
NOTAMs
Click for the latest NOTAMs
NOTAMs are issued by the DoD/FAA and will open in a separate window not controlled by AirNav.

 

 
 

Would you like to see your business listed on this page?

 If your business provides an interesting product or service to pilots, flight crews, aircraft, or users of the Lake Barkley State Park Airport, you should consider listing it here.  To start the listing process, click on the button below
 
Add a business
 

Other Pages about Lake Barkley State Park Airport

Update a link
 
Copyright © AirNav, LLC. All rights reserved. Privacy Policy  Contact